Time;durP1;ratioP1;P1;durP2;ratioP2;P2;SDS_P1;SDS_P2;PMS_P1;PMS_P2;Temp;Humidity;BMP_temperature;BMP_pressure;BME280_temperature;BME280_humidity;BME280_pressure;Samples;Min_cycle;Max_cycle;Signal;HPM_P1;HPM_P2
2021/12/15 00:01:57;;;;;;;29.63;18.60;;;;;;;7.31;78.18;100292.91;2623749;54;20061;-68
2021/12/15 00:04:28;;;;;;;27.15;18.20;;;;;;;7.27;77.99;100288.06;2624609;54;20061;-69
2021/12/15 00:06:57;;;;;;;26.58;17.75;;;;;;;7.28;78.01;100280.03;2623649;47;20031;-69
2021/12/15 00:09:29;;;;;;;30.50;18.58;;;;;;;7.34;77.70;100283.91;2623880;54;20056;-69
2021/12/15 00:12:03;;;;;;;30.95;18.88;;;;;;;7.34;77.54;100278.63;2623109;46;20034;-69
2021/12/15 00:14:35;;;;;;;31.02;19.17;;;;;;;7.35;77.69;100277.69;2623472;54;20045;-69
2021/12/15 00:17:05;;;;;;;26.88;16.90;;;;;;;7.33;77.85;100279.63;2622569;54;20023;-70
2021/12/15 00:19:35;;;;;;;28.20;17.33;;;;;;;7.30;78.03;100275.44;2619619;54;20165;-68
2021/12/15 00:22:06;;;;;;;28.23;17.40;;;;;;;7.31;77.87;100281.56;2619416;54;20553;-69
2021/12/15 00:24:36;;;;;;;29.85;18.70;;;;;;;7.34;77.88;100278.63;2618831;54;20034;-69
2021/12/15 00:27:07;;;;;;;30.33;18.67;;;;;;;7.23;78.03;100278.78;2618826;54;20041;-69
2021/12/15 00:29:39;;;;;;;27.50;17.92;;;;;;;7.18;78.06;100285.28;2619138;39;20402;-69
2021/12/15 00:32:10;;;;;;;29.73;18.08;;;;;;;7.18;78.31;100293.16;2619001;54;20026;-69
2021/12/15 00:34:41;;;;;;;31.30;19.30;;;;;;;7.10;77.69;100279.84;2620920;54;20065;-69
2021/12/15 00:37:11;;;;;;;31.75;18.77;;;;;;;6.97;78.46;100273.16;2619867;39;20437;-69
2021/12/15 00:39:41;;;;;;;28.70;18.80;;;;;;;7.02;78.61;100284.09;2620450;39;20453;-69
2021/12/15 00:42:11;;;;;;;31.00;19.05;;;;;;;7.03;78.94;100277.88;2618704;47;20045;-69
2021/12/15 00:44:43;;;;;;;33.78;17.80;;;;;;;7.08;78.94;100278.31;2619192;39;20470;-69
2021/12/15 00:47:13;;;;;;;25.88;16.83;;;;;;;7.08;78.94;100286.19;2619238;54;20039;-69
2021/12/15 00:49:44;;;;;;;29.35;17.65;;;;;;;7.09;78.23;100280.78;2619376;54;20042;-69
2021/12/15 00:52:14;;;;;;;28.42;18.60;;;;;;;7.04;78.11;100279.53;2619119;54;20027;-69
2021/12/15 00:54:44;;;;;;;32.10;17.95;;;;;;;7.04;78.73;100277.75;2619247;54;20042;-70
2021/12/15 00:57:13;;;;;;;32.28;18.70;;;;;;;7.10;78.70;100285.09;2619213;54;20038;-68
2021/12/15 00:59:46;;;;;;;26.52;16.63;;;;;;;7.13;78.27;100278.72;2618366;46;20030;-68
2021/12/15 01:02:15;;;;;;;30.90;18.45;;;;;;;7.09;78.08;100277.34;2619409;54;20045;-68
2021/12/15 01:04:45;;;;;;;28.95;17.85;;;;;;;7.04;77.90;100275.13;2620041;54;20039;-68
2021/12/15 01:07:15;;;;;;;28.42;17.50;;;;;;;7.02;77.67;100273.56;2620849;54;20567;-68
2021/12/15 01:09:49;;;;;;;30.10;18.15;;;;;;;6.99;77.83;100279.94;2620729;47;20070;-68
2021/12/15 01:12:42;;;;;;;28.92;17.75;;;;;;;6.98;78.14;100283.56;2620560;54;20035;-68
2021/12/15 01:20:47;;;;;;;28.67;18.42;;;;;;;6.95;77.61;100287.25;2619984;47;20093;-69
2021/12/15 01:23:19;;;;;;;26.90;16.40;;;;;;;6.95;77.98;100283.81;2622453;54;20066;-69
2021/12/15 01:25:54;;;;;;;25.95;17.40;;;;;;;6.89;77.65;100285.16;2623152;54;20094;-68
2021/12/15 01:28:25;;;;;;;28.65;16.98;;;;;;;6.86;77.93;100285.44;2622173;47;20029;-68
2021/12/15 01:30:58;;;;;;;26.88;17.38;;;;;;;6.83;77.83;100290.94;2620148;47;20027;-68
2021/12/15 01:33:29;;;;;;;29.35;18.33;;;;;;;6.81;78.25;100281.53;2618607;47;20026;-68
2021/12/15 01:36:00;;;;;;;27.00;16.88;;;;;;;6.84;77.93;100284.72;2619277;54;20525;-68
2021/12/15 01:38:34;;;;;;;29.23;17.90;;;;;;;6.78;77.54;100287.91;2623122;54;20154;-68
2021/12/15 01:41:05;;;;;;;27.95;17.60;;;;;;;6.60;77.76;100279.78;2623274;54;20026;-68
2021/12/15 01:43:49;;;;;;;32.22;19.55;;;;;;;6.50;77.82;100294.66;2622418;54;20038;-68
2021/12/15 01:49:10;;;;;;;26.95;17.52;;;;;;;6.10;78.57;100294.53;2622559;47;19973;-68
2021/12/15 01:51:42;;;;;;;27.50;16.80;;;;;;;6.00;79.18;100296.25;2622553;54;20034;-68
2021/12/15 01:54:18;;;;;;;28.90;18.10;;;;;;;6.10;79.59;100299.81;2622571;54;20031;-68
2021/12/15 01:56:48;;;;;;;28.70;17.92;;;;;;;6.05;79.00;100299.34;2621502;54;20031;-69
2021/12/15 01:59:21;;;;;;;30.17;17.83;;;;;;;5.90;79.62;100304.88;2622708;54;20027;-69
2021/12/15 02:01:54;;;;;;;28.08;18.30;;;;;;;5.95;79.12;100307.97;2622298;54;20052;-69
2021/12/15 02:04:24;;;;;;;30.88;18.67;;;;;;;5.94;79.07;100310.72;2622547;54;20022;-69
2021/12/15 02:06:54;;;;;;;26.45;17.42;;;;;;;5.90;79.60;100304.03;2621004;54;20094;-68
2021/12/15 02:09:45;;;;;;;29.15;16.73;;;;;;;5.97;79.48;100307.84;2620591;54;20090;-69
2021/12/15 02:12:18;;;;;;;25.88;16.83;;;;;;;5.97;79.22;100299.16;2620856;54;20042;-68
2021/12/15 02:14:48;;;;;;;27.70;16.85;;;;;;;5.97;79.04;100300.00;2620958;39;20422;-68
2021/12/15 02:17:21;;;;;;;26.52;16.75;;;;;;;5.99;79.03;100298.06;2619289;47;20030;-68
2021/12/15 02:19:51;;;;;;;26.30;17.48;;;;;;;5.96;78.45;100298.31;2620491;54;20034;-68
2021/12/15 02:22:23;;;;;;;30.27;18.98;;;;;;;5.82;78.40;100307.28;2619072;47;20030;-69
2021/12/15 02:24:53;;;;;;;24.92;15.88;;;;;;;5.65;78.75;100306.03;2619585;39;20118;-67
2021/12/15 02:27:30;;;;;;;31.95;18.02;;;;;;;5.71;79.37;100291.56;2622514;54;20026;-67
2021/12/15 02:30:15;;;;;;;31.83;17.58;;;;;;;5.79;78.72;100306.69;2623766;47;20078;-69
2021/12/15 02:32:57;;;;;;;28.73;17.05;;;;;;;5.76;79.21;100306.97;2624495;54;20050;-69
2021/12/15 02:38:12;;;;;;;28.58;17.73;;;;;;;5.68;79.36;100310.22;2622768;54;20033;-68
2021/12/15 02:40:42;;;;;;;31.30;19.60;;;;;;;5.69;79.58;100301.38;2623913;54;20033;-68
2021/12/15 02:43:11;;;;;;;30.75;17.27;;;;;;;5.57;78.83;100312.84;2622566;47;20561;-67
2021/12/15 02:45:41;;;;;;;29.38;17.98;;;;;;;5.60;79.45;100316.06;2623930;39;20473;-68
2021/12/15 02:48:11;;;;;;;28.80;17.13;;;;;;;5.69;79.85;100311.88;2624091;47;20130;-68
2021/12/15 02:50:41;;;;;;;33.55;18.63;;;;;;;5.82;79.06;100311.69;2624258;54;20030;-68
2021/12/15 02:53:13;;;;;;;29.88;17.52;;;;;;;5.90;79.09;100307.50;2624200;54;20030;-69
2021/12/15 02:55:43;;;;;;;29.52;16.58;;;;;;;5.90;79.00;100309.28;2623798;54;20043;-68
2021/12/15 02:58:13;;;;;;;31.73;17.05;;;;;;;5.93;79.08;100304.66;2624812;39;20143;-68
2021/12/15 03:00:51;;;;;;;29.27;16.70;;;;;;;5.96;78.91;100311.44;2624799;54;20033;-68
2021/12/15 03:03:55;;;;;;;34.63;19.20;;;;;;;6.00;78.86;100312.88;2625327;54;20160;-68
2021/12/15 03:06:32;;;;;;;38.25;18.52;;;;;;;6.07;78.35;100316.63;2625210;54;20015;-68
2021/12/15 03:09:31;;;;;;;32.95;18.02;;;;;;;6.06;79.07;100314.13;2625507;54;20521;-68
2021/12/15 03:17:24;;;;;;;27.02;16.83;;;;;;;6.14;79.18;100299.41;2625008;47;20030;-68
2021/12/15 03:19:54;;;;;;;31.05;17.42;;;;;;;6.18;79.03;100300.81;2625323;54;20038;-68
2021/12/15 03:22:24;;;;;;;31.13;17.98;;;;;;;6.18;78.55;100306.06;2624824;54;20039;-68
2021/12/15 03:24:56;;;;;;;30.02;17.55;;;;;;;6.21;78.23;100302.38;2625035;54;20054;-68
2021/12/15 03:33:16;;;;;;;29.77;17.35;;;;;;;6.20;78.47;100301.53;2626660;39;20487;-68
2021/12/15 03:36:00;;;;;;;32.40;18.25;;;;;;;6.06;78.68;100296.59;2624687;54;20039;-69
2021/12/15 03:38:30;;;;;;;40.55;18.38;;;;;;;6.09;78.64;100308.66;2624574;54;20026;-69
2021/12/15 03:41:03;;;;;;;32.25;18.38;;;;;;;6.07;78.85;100300.88;2624918;54;20034;-69
2021/12/15 03:43:33;;;;;;;28.00;17.98;;;;;;;6.07;78.77;100308.75;2624045;39;20453;-69
2021/12/15 03:46:08;;;;;;;56.13;18.48;;;;;;;6.05;78.60;100301.97;2624001;54;20038;-69
2021/12/15 03:48:40;;;;;;;45.63;19.30;;;;;;;6.01;78.99;100311.06;2624228;54;20548;-69
2021/12/15 03:51:13;;;;;;;39.28;19.75;;;;;;;5.97;79.05;100314.91;2624461;54;20026;-69
2021/12/15 03:53:43;;;;;;;31.42;18.27;;;;;;;5.99;78.89;100324.31;2623891;47;20053;-69
2021/12/15 03:56:19;;;;;;;53.28;20.05;;;;;;;5.96;79.16;100316.69;2624437;54;20038;-69
2021/12/15 03:58:49;;;;;;;32.03;17.98;;;;;;;5.89;79.54;100321.56;2624191;54;20034;-69
2021/12/15 04:01:23;;;;;;;40.72;19.00;;;;;;;5.84;79.74;100322.91;2623392;54;20038;-69
2021/12/15 04:03:56;;;;;;;53.75;20.42;;;;;;;5.81;80.01;100318.75;2623281;54;20050;-69
2021/12/15 04:06:28;;;;;;;63.03;22.45;;;;;;;5.86;80.02;100318.38;2623909;54;20034;-69
2021/12/15 04:08:58;;;;;;;80.55;23.98;;;;;;;5.83;79.41;100321.22;2624376;54;20057;-69
2021/12/15 04:11:34;;;;;;;55.45;20.75;;;;;;;5.76;79.78;100314.84;2624352;54;20058;-70
2021/12/15 04:14:08;;;;;;;59.90;19.38;;;;;;;5.75;80.33;100315.78;2624681;54;20030;-70
2021/12/15 04:16:57;;;;;;;62.00;21.60;;;;;;;5.79;80.39;100322.44;2625463;39;20438;-70
2021/12/15 04:19:28;;;;;;;42.15;19.95;;;;;;;5.81;80.70;100321.38;2624811;54;20034;-70
2021/12/15 04:21:58;;;;;;;62.10;19.73;;;;;;;5.77;80.30;100322.56;2624759;54;20039;-70
2021/12/15 04:24:29;;;;;;;61.45;21.13;;;;;;;5.69;80.68;100327.59;2624898;54;20038;-70
2021/12/15 04:27:04;;;;;;;39.92;22.95;;;;;;;5.66;80.84;100325.22;2625606;54;20026;-70
2021/12/15 04:29:34;;;;;;;47.08;19.17;;;;;;;5.67;80.90;100325.13;2625564;54;20034;-70
2021/12/15 04:32:10;;;;;;;62.45;19.88;;;;;;;5.66;80.84;100333.94;2624267;54;20041;-70
2021/12/15 04:34:40;;;;;;;41.70;18.27;;;;;;;5.66;81.14;100333.94;2624691;54;20031;-70
2021/12/15 04:37:10;;;;;;;77.65;19.90;;;;;;;5.66;81.12;100333.94;2624272;54;20083;-70
2021/12/15 04:39:39;;;;;;;43.58;20.10;;;;;;;5.59;81.16;100335.41;2622834;54;20054;-70
2021/12/15 04:42:12;;;;;;;40.80;17.60;;;;;;;5.64;81.45;100335.03;2622612;54;20027;-70
2021/12/15 04:44:42;;;;;;;48.20;18.13;;;;;;;5.60;81.33;100338.84;2624342;54;20034;-70
2021/12/15 04:47:14;;;;;;;60.20;17.23;;;;;;;5.56;81.18;100334.81;2624353;54;20026;-70
2021/12/15 04:49:47;;;;;;;32.90;16.48;;;;;;;5.57;81.54;100344.34;2622522;47;20027;-70
2021/12/15 04:52:20;;;;;;;35.35;16.85;;;;;;;5.61;81.09;100341.34;2622173;47;20034;-70
2021/12/15 04:54:49;;;;;;;42.58;16.30;;;;;;;5.62;81.38;100339.53;2623479;54;20027;-70
2021/12/15 04:57:22;;;;;;;43.63;16.17;;;;;;;5.61;81.27;100343.13;2623294;54;20038;-70
2021/12/15 04:59:52;;;;;;;40.95;18.35;;;;;;;5.61;80.91;100349.22;2623263;54;20101;-70
2021/12/15 05:02:23;;;;;;;32.05;17.15;;;;;;;5.61;80.88;100343.13;2622975;54;20099;-70
2021/12/15 05:04:54;;;;;;;51.30;18.05;;;;;;;5.61;80.65;100345.75;2624279;54;20042;-70
2021/12/15 05:07:24;;;;;;;30.30;15.80;;;;;;;5.63;80.94;100349.06;2623117;54;20037;-70
2021/12/15 05:09:55;;;;;;;36.55;16.00;;;;;;;5.66;81.02;100352.28;2623321;54;20034;-70
2021/12/15 05:12:27;;;;;;;26.77;16.35;;;;;;;5.67;80.65;100350.50;2622440;54;20065;-70
2021/12/15 05:14:56;;;;;;;44.40;18.33;;;;;;;5.71;81.03;100346.66;2621536;54;20030;-70
2021/12/15 05:17:26;;;;;;;32.60;17.05;;;;;;;5.71;80.64;100357.16;2622051;54;20031;-69
2021/12/15 05:20:00;;;;;;;30.38;16.63;;;;;;;5.70;80.66;100353.72;2621922;54;20130;-69
2021/12/15 05:22:30;;;;;;;42.03;17.58;;;;;;;5.69;81.26;100354.69;2621874;54;20031;-69
2021/12/15 05:25:00;;;;;;;33.25;17.38;;;;;;;5.73;80.85;100357.91;2622152;47;20038;-69
2021/12/15 05:27:36;;;;;;;36.75;17.27;;;;;;;5.69;81.17;100349.44;2623574;54;20536;-69
2021/12/15 05:30:08;;;;;;;33.03;17.10;;;;;;;5.70;81.13;100355.50;2622405;54;20034;-71
2021/12/15 05:32:38;;;;;;;38.17;18.67;;;;;;;5.68;81.42;100357.44;2622452;54;20030;-69
2021/12/15 05:35:10;;;;;;;43.95;17.52;;;;;;;5.65;80.89;100355.06;2622482;54;20077;-69
2021/12/15 05:37:40;;;;;;;47.03;17.95;;;;;;;5.60;81.22;100362.47;2624639;39;20432;-69
2021/12/15 05:40:11;;;;;;;47.05;17.92;;;;;;;5.59;81.48;100358.16;2623658;46;20042;-69
2021/12/15 05:42:43;;;;;;;40.88;16.25;;;;;;;5.64;81.20;100361.25;2624245;39;20501;-68
2021/12/15 05:45:14;;;;;;;58.53;18.63;;;;;;;5.69;81.51;100351.22;2622764;54;20030;-69
2021/12/15 05:47:45;;;;;;;36.20;15.88;;;;;;;5.74;81.20;100364.81;2623937;54;20545;-69
2021/12/15 05:50:16;;;;;;;30.73;15.45;;;;;;;5.76;81.32;100360.28;2625469;54;20045;-69
2021/12/15 05:52:45;;;;;;;39.78;17.13;;;;;;;5.75;81.05;100357.75;2625014;54;20549;-69
2021/12/15 05:55:17;;;;;;;40.88;17.23;;;;;;;5.78;81.10;100363.59;2624909;54;20043;-70
2021/12/15 05:57:49;;;;;;;34.75;16.40;;;;;;;5.75;80.80;100366.47;2625429;54;20053;-70
2021/12/15 06:00:23;;;;;;;42.78;16.15;;;;;;;5.65;80.99;100358.50;2624603;54;20038;-69
2021/12/15 06:02:53;;;;;;;39.85;16.92;;;;;;;5.51;81.19;100371.91;2623885;47;20029;-69
2021/12/15 06:05:22;;;;;;;32.10;16.45;;;;;;;5.46;81.38;100377.50;2626743;54;20046;-69
2021/12/15 06:07:52;;;;;;;37.70;16.70;;;;;;;5.47;81.76;100373.94;2629729;39;20441;-68
2021/12/15 06:10:25;;;;;;;36.55;16.80;;;;;;;5.41;81.34;100379.66;2627060;54;20054;-69
2021/12/15 06:12:58;;;;;;;36.13;17.20;;;;;;;5.34;81.24;100385.50;2626679;54;20043;-69
2021/12/15 06:15:30;;;;;;;40.83;18.23;;;;;;;5.26;81.36;100390.50;2627018;54;20111;-69
2021/12/15 06:18:07;;;;;;;33.83;16.95;;;;;;;5.19;81.36;100391.00;2626089;54;20311;-69
2021/12/15 06:20:44;;;;;;;43.17;16.27;;;;;;;5.11;81.64;100390.75;2624760;54;20042;-69
2021/12/15 06:23:18;;;;;;;37.58;15.93;;;;;;;5.04;81.78;100388.72;2626218;54;20065;-69
2021/12/15 06:25:49;;;;;;;;;;;;;;;4.99;81.90;100391.69;2626308;54;20074;-68
2021/12/15 06:28:23;;;;;;;44.58;16.27;;;;;;;4.94;81.80;100392.06;2628851;39;20288;-68
2021/12/15 06:30:53;;;;;;;44.08;17.40;;;;;;;4.92;82.01;100396.56;2626592;54;20030;-69
2021/12/15 06:33:24;;;;;;;55.45;16.77;;;;;;;4.94;82.24;100394.69;2626892;54;20077;-69
2021/12/15 06:35:58;;;;;;;28.25;13.93;;;;;;;4.95;82.26;100400.75;2627075;54;20034;-69
2021/12/15 06:38:30;;;;;;;34.53;14.57;;;;;;;4.94;82.41;100412.19;2626466;54;20030;-68
2021/12/15 06:41:00;;;;;;;35.22;15.02;;;;;;;4.99;82.17;100406.59;2626995;54;20034;-69
2021/12/15 06:43:33;;;;;;;32.85;13.75;;;;;;;4.93;81.98;100411.34;2626894;54;20557;-69
2021/12/15 06:46:21;;;;;;;25.38;12.30;;;;;;;4.86;81.54;100411.94;2627263;54;20081;-69
2021/12/15 06:59:43;;;;;;;26.95;12.02;;;;;;;4.74;81.80;100441.69;2621799;54;20038;-70
2021/12/15 07:02:13;;;;;;;23.73;11.77;;;;;;;4.77;82.01;100442.28;2622639;54;20030;-70
2021/12/15 07:04:42;;;;;;;27.52;13.40;;;;;;;4.77;81.56;100450.13;2624144;54;20027;-70
2021/12/15 07:07:12;;;;;;;25.77;12.13;;;;;;;4.77;81.75;100452.75;2625176;54;20027;-70
2021/12/15 07:09:44;;;;;;;35.75;15.02;;;;;;;4.79;82.17;100456.09;2624153;47;20050;-71
2021/12/15 07:12:13;;;;;;;31.08;14.65;;;;;;;4.92;82.02;100454.22;2625013;54;20042;-70
2021/12/15 07:14:46;;;;;;;28.80;14.10;;;;;;;4.92;81.36;100456.00;2624994;54;20035;-70
2021/12/15 07:17:21;;;;;;;29.50;13.90;;;;;;;4.88;81.29;100457.19;2624174;54;20049;-70
2021/12/15 07:20:05;;;;;;;29.05;12.70;;;;;;;4.91;81.66;100464.84;2625341;54;20030;-70
2021/12/15 07:22:43;;;;;;;35.63;14.00;;;;;;;5.05;81.24;100462.00;2624548;54;20022;-70
2021/12/15 07:25:16;;;;;;;31.85;13.50;;;;;;;5.15;81.37;100467.38;2624595;54;20032;-70
2021/12/15 07:27:46;;;;;;;28.23;14.45;;;;;;;5.19;80.69;100474.91;2624389;54;20735;-70
2021/12/15 07:30:18;;;;;;;34.53;14.50;;;;;;;5.26;80.78;100459.50;2625407;39;20513;-70
2021/12/15 07:32:49;;;;;;;28.80;12.45;;;;;;;5.26;79.93;100477.88;2624763;54;20061;-70
2021/12/15 07:35:20;;;;;;;36.22;14.40;;;;;;;5.24;79.88;100469.28;2625630;54;20034;-69
2021/12/15 07:37:50;;;;;;;29.73;13.30;;;;;;;5.22;79.57;100473.81;2625920;46;20052;-71
2021/12/15 07:40:23;;;;;;;34.28;14.25;;;;;;;5.16;79.42;100475.13;2625710;54;20042;-69
2021/12/15 07:43:06;;;;;;;29.42;13.15;;;;;;;5.21;80.01;100482.63;2623498;54;20561;-69
2021/12/15 07:45:43;;;;;;;30.98;13.35;;;;;;;5.30;79.90;100484.53;2623402;54;20035;-69
2021/12/15 07:48:15;;;;;;;32.60;12.75;;;;;;;5.27;79.46;100487.41;2624226;39;20410;-69
2021/12/15 07:50:49;;;;;;;33.85;13.45;;;;;;;5.31;79.00;100491.47;2622213;54;20030;-69
2021/12/15 07:53:22;;;;;;;;;;;;;;;5.26;78.59;100498.00;2622036;54;20030;-69
2021/12/15 07:55:53;;;;;;;31.80;14.57;;;;;;;5.12;78.75;100506.94;2620056;54;19946;-70
2021/12/15 07:58:25;;;;;;;24.85;12.18;;;;;;;5.11;78.26;100502.66;2621209;39;20465;-70
2021/12/15 08:01:01;;;;;;;22.45;10.45;;;;;;;4.94;77.93;100504.75;2620766;54;20061;-70
2021/12/15 08:03:32;;;;;;;19.23;9.85;;;;;;;4.80;78.38;100504.94;2621689;54;20037;-69
2021/12/15 08:06:02;;;;;;;22.45;10.98;;;;;;;4.74;78.77;100507.19;2621138;54;20019;-70
2021/12/15 08:08:32;;;;;;;21.50;11.25;;;;;;;4.74;79.16;100510.63;2621127;54;20039;-71
2021/12/15 08:11:02;;;;;;;27.33;12.52;;;;;;;4.77;79.19;100499.06;2622168;54;20038;-69
2021/12/15 08:13:34;;;;;;;22.42;11.68;;;;;;;4.74;78.81;100501.94;2621947;54;20035;-70
2021/12/15 08:16:07;;;;;;;22.17;11.00;;;;;;;4.72;78.99;100509.91;2618451;50;20030;-70
2021/12/15 08:18:37;;;;;;;25.17;12.90;;;;;;;4.75;79.20;100509.69;2618211;54;20030;-70
2021/12/15 08:21:08;;;;;;;20.65;11.23;;;;;;;4.81;79.09;100511.84;2620314;54;20066;-68
2021/12/15 08:23:39;;;;;;;23.67;12.48;;;;;;;4.84;79.29;100513.41;2619042;54;20556;-68
2021/12/15 08:26:08;;;;;;;24.48;12.70;;;;;;;4.93;79.28;100512.72;2619759;54;20042;-68
2021/12/15 08:28:39;;;;;;;34.72;16.65;;;;;;;5.08;79.32;100515.97;2619134;54;20571;-69
2021/12/15 08:31:12;;;;;;;24.63;13.63;;;;;;;5.12;78.81;100523.50;2619487;54;20027;-68
2021/12/15 08:33:42;;;;;;;22.85;12.15;;;;;;;5.12;79.07;100523.50;2618514;47;20034;-69
2021/12/15 08:36:13;;;;;;;19.45;10.82;;;;;;;5.14;78.69;100531.22;2618678;54;20022;-68
2021/12/15 08:38:47;;;;;;;17.17;10.40;;;;;;;5.20;78.12;100522.91;2618895;54;20038;-69
2021/12/15 08:41:20;;;;;;;14.25;8.95;;;;;;;5.22;78.24;100524.47;2619029;54;20049;-68
2021/12/15 08:43:50;;;;;;;17.65;10.57;;;;;;;5.24;77.82;100532.22;2618725;54;20043;-69
2021/12/15 08:46:26;;;;;;;16.83;9.23;;;;;;;5.17;77.37;100537.09;2618376;54;20575;-69
2021/12/15 08:48:56;;;;;;;16.67;9.15;;;;;;;5.11;77.68;100531.47;2618236;47;20026;-68
2021/12/15 08:51:28;;;;;;;15.75;9.43;;;;;;;5.09;77.74;100528.13;2618139;47;20034;-69
2021/12/15 08:54:01;;;;;;;18.38;9.65;;;;;;;5.15;78.24;100531.13;2618677;54;20543;-69
2021/12/15 08:56:31;;;;;;;15.45;8.63;;;;;;;5.42;78.17;100525.56;2618046;54;20775;-69
2021/12/15 08:59:01;;;;;;;14.00;9.68;;;;;;;5.62;78.09;100525.81;2618901;54;20065;-69
2021/12/15 09:01:34;;;;;;;16.75;10.15;;;;;;;5.72;77.09;100529.41;2618218;47;20031;-70
2021/12/15 09:04:05;;;;;;;16.23;10.25;;;;;;;5.72;77.09;100521.53;2618895;54;20039;-69
2021/12/15 09:06:35;;;;;;;14.73;9.65;;;;;;;5.65;76.67;100528.22;2618937;54;20022;-69
2021/12/15 09:09:07;;;;;;;16.67;9.80;;;;;;;5.62;76.80;100520.56;2619339;54;20034;-69
2021/12/15 09:11:37;;;;;;;17.50;10.27;;;;;;;5.69;76.72;100524.41;2619012;54;20559;-70
2021/12/15 09:14:10;;;;;;;15.23;9.80;;;;;;;5.77;76.41;100529.06;2618956;54;20066;-70
2021/12/15 09:16:44;;;;;;;15.23;9.40;;;;;;;5.71;76.02;100520.72;2619003;54;20041;-69
2021/12/15 09:19:15;;;;;;;13.50;9.38;;;;;;;5.70;76.37;100523.44;2619041;54;20030;-69
2021/12/15 09:21:46;;;;;;;16.10;10.05;;;;;;;5.72;76.18;100527.63;2619473;39;20425;-70
2021/12/15 09:24:16;;;;;;;15.20;10.77;;;;;;;5.75;76.27;100526.53;2618772;54;20034;-69
2021/12/15 09:26:46;;;;;;;15.52;10.43;;;;;;;5.79;76.04;100524.50;2619900;39;20402;-69
2021/12/15 09:29:16;;;;;;;16.05;9.98;;;;;;;5.67;76.45;100527.16;2618202;54;20034;-70
2021/12/15 09:31:49;;;;;;;15.55;10.68;;;;;;;5.75;76.26;100520.47;2618000;54;20034;-70
2021/12/15 09:34:19;;;;;;;15.30;11.10;;;;;;;5.73;76.48;100531.09;2618679;54;20030;-69
2021/12/15 09:36:50;;;;;;;13.88;9.30;;;;;;;5.80;76.25;100526.19;2618078;47;20538;-68
2021/12/15 09:39:22;;;;;;;17.73;10.55;;;;;;;5.93;76.45;100530.41;2618427;54;20038;-69
2021/12/15 09:41:59;;;;;;;16.88;10.43;;;;;;;5.99;76.09;100528.22;2617810;54;20022;-69
2021/12/15 09:44:29;;;;;;;15.23;10.10;;;;;;;6.06;76.12;100529.44;2618069;54;20034;-70
2021/12/15 09:47:14;;;;;;;17.15;11.00;;;;;;;6.17;75.89;100525.00;2619166;39;20445;-67
2021/12/15 10:03:36;;;;;;;23.05;15.13;;;;;;;6.62;76.25;100521.41;2618021;54;20034;-68
2021/12/15 10:06:23;;;;;;;26.75;16.60;;;;;;;6.74;76.16;100519.59;2617604;54;20022;-69
2021/12/15 10:19:57;;;;;;;34.55;19.73;;;;;;;7.16;75.55;100525.69;2617711;54;20038;-69
2021/12/15 10:22:39;;;;;;;35.45;20.88;;;;;;;7.16;75.72;100510.75;2618045;54;20130;-68
2021/12/15 10:25:16;;;;;;;37.65;22.65;;;;;;;7.11;75.68;100517.38;2618383;54;20049;-68
2021/12/15 10:27:48;;;;;;;51.35;30.23;;;;;;;7.14;75.69;100514.44;2617955;47;20137;-67
2021/12/15 11:35:02;;;;;;;30.90;18.55;;;;;;;8.17;73.76;100472.22;2570715;46;20034;-68
2021/12/15 11:37:45;;;;;;;;;;;;;;;8.22;73.44;100470.00;2619078;54;20038;-70
2021/12/15 11:40:16;;;;;;;32.50;19.05;;;;;;;8.38;73.74;100458.97;2618906;54;19942;-68
2021/12/15 11:42:47;;;;;;;30.20;18.80;;;;;;;8.45;72.98;100454.81;2619167;54;20037;-66
2021/12/15 11:45:17;;;;;;;29.83;18.48;;;;;;;8.56;72.95;100461.72;2619978;39;20427;-68
2021/12/15 11:47:47;;;;;;;32.33;19.25;;;;;;;8.57;72.61;100456.34;2622237;54;20034;-68
2021/12/15 11:50:21;;;;;;;28.35;18.00;;;;;;;8.60;72.17;100457.84;2627950;54;20030;-67
2021/12/15 11:52:52;;;;;;;26.70;17.70;;;;;;;8.61;72.13;100452.44;2629049;54;20026;-67
2021/12/15 11:55:29;;;;;;;27.60;17.38;;;;;;;8.64;71.52;100457.41;2628902;54;20031;-67
2021/12/15 11:57:59;;;;;;;29.92;19.38;;;;;;;8.61;71.49;100452.44;2628962;54;20010;-69
2021/12/15 12:00:31;;;;;;;26.90;17.38;;;;;;;8.57;71.83;100452.84;2628319;54;20022;-66
2021/12/15 12:03:02;;;;;;;22.52;14.20;;;;;;;8.70;71.56;100449.94;2628172;54;20026;-66
2021/12/15 12:05:37;;;;;;;20.60;13.82;;;;;;;8.81;71.65;100449.78;2627408;47;20041;-68
2021/12/15 12:08:09;;;;;;;20.40;13.93;;;;;;;8.87;70.98;100454.50;2627340;54;20029;-66
2021/12/15 12:10:44;;;;;;;18.77;13.90;;;;;;;8.93;70.98;100453.91;2628419;54;20029;-67
2021/12/15 12:13:21;;;;;;;19.58;12.13;;;;;;;8.90;71.35;100447.13;2627918;54;20041;-66
2021/12/15 12:15:55;;;;;;;22.77;15.30;;;;;;;8.93;70.95;100446.84;2622239;54;20038;-67
2021/12/15 12:18:28;;;;;;;24.92;15.40;;;;;;;8.79;71.23;100443.81;2618350;54;20034;-67
2021/12/15 12:21:03;;;;;;;27.52;16.60;;;;;;;8.76;71.10;100442.28;2618463;54;20042;-68
2021/12/15 12:23:34;;;;;;;21.08;13.93;;;;;;;8.78;70.98;100434.25;2618811;54;20038;-69
2021/12/15 12:26:07;;;;;;;22.65;14.98;;;;;;;8.92;71.47;100434.63;2619240;54;20095;-68
2021/12/15 12:28:40;;;;;;;32.67;16.13;;;;;;;8.98;71.31;100427.97;2618580;49;20031;-68
2021/12/15 12:31:16;;;;;;;26.92;15.65;;;;;;;9.00;71.14;100430.44;2618132;47;20596;-67
2021/12/15 12:33:46;;;;;;;21.77;14.13;;;;;;;8.98;70.66;100420.06;2619263;54;20062;-68
2021/12/15 12:36:23;;;;;;;24.95;15.48;;;;;;;9.03;70.29;100428.38;2619374;54;20038;-68
2021/12/15 12:38:56;;;;;;;24.10;15.75;;;;;;;9.05;69.92;100422.94;2619892;54;20045;-67
2021/12/15 12:41:30;;;;;;;19.10;13.32;;;;;;;8.97;70.57;100421.00;2619632;54;20034;-67
2021/12/15 12:44:02;;;;;;;21.42;14.60;;;;;;;9.10;70.57;100424.19;2619292;54;20030;-67
2021/12/15 12:46:39;;;;;;;19.63;12.50;;;;;;;9.13;70.20;100417.78;2618948;54;20026;-68
2021/12/15 12:59:21;;;;;;;15.75;10.48;;;;;;;9.25;70.19;100426.34;2619321;39;20434;-66
2021/12/15 13:00:53;;;;;;;21.90;13.38;;;;;;;9.21;70.73;100420.53;2618654;54;20038;-68
2021/12/15 13:03:34;;;;;;;20.48;13.70;;;;;;;9.22;70.36;100421.34;2618816;54;20054;-67
2021/12/15 13:06:07;;;;;;;21.60;13.32;;;;;;;9.13;70.47;100415.13;2618955;54;20558;-68
2021/12/15 13:08:43;;;;;;;21.75;13.82;;;;;;;9.15;70.83;100407.91;2617928;54;20026;-68
2021/12/15 13:11:18;;;;;;;21.67;13.45;;;;;;;9.14;70.72;100406.22;2617856;54;20034;-67
2021/12/15 13:14:01;;;;;;;20.58;14.20;;;;;;;9.17;71.17;100416.50;2618585;54;20030;-67
2021/12/15 13:16:37;;;;;;;26.77;13.55;;;;;;;9.18;70.93;100405.84;2619076;54;20534;-67
2021/12/15 13:19:15;;;;;;;20.30;13.07;;;;;;;9.21;71.11;100403.88;2618344;54;20542;-66
2021/12/15 13:21:58;;;;;;;21.85;14.48;;;;;;;9.26;70.80;100401.63;2618589;54;20026;-65
2021/12/15 13:30:28;;;;;;;20.67;14.07;;;;;;;9.16;70.78;100401.66;2620695;54;20030;-68
2021/12/15 13:33:05;;;;;;;20.92;14.65;;;;;;;9.14;70.81;100403.59;2618937;46;20030;-67
2021/12/15 13:35:42;;;;;;;21.15;13.98;;;;;;;9.09;71.40;100405.84;2620085;54;20514;-67
2021/12/15 13:38:13;;;;;;;22.38;15.77;;;;;;;9.07;71.72;100405.16;2624477;54;20034;-67
2021/12/15 13:41:07;;;;;;;20.75;14.55;;;;;;;9.05;71.61;100396.56;2625899;54;20046;-67
2021/12/15 13:43:40;;;;;;;17.00;12.95;;;;;;;8.99;71.98;100399.78;2618811;54;20035;-67
2021/12/15 13:46:23;;;;;;;20.98;14.00;;;;;;;9.00;72.01;100402.25;2619092;54;20034;-65
2021/12/15 13:48:58;;;;;;;19.88;14.23;;;;;;;8.95;72.10;100391.31;2618815;54;20081;-68
2021/12/15 13:52:01;;;;;;;26.95;16.38;;;;;;;8.88;72.30;100400.78;2619446;54;20033;-68
2021/12/15 13:54:51;;;;;;;26.23;16.75;;;;;;;8.85;72.49;100396.59;2621415;47;20031;-67
2021/12/15 13:57:28;;;;;;;24.45;15.93;;;;;;;8.82;72.64;100399.53;2620859;54;20042;-67
2021/12/15 14:00:03;;;;;;;22.98;14.52;;;;;;;8.82;72.63;100398.72;2622427;54;20030;-68
2021/12/15 14:02:43;;;;;;;21.88;15.60;;;;;;;8.79;72.65;100394.53;2619184;54;20030;-66
2021/12/15 14:05:26;;;;;;;22.25;14.65;;;;;;;8.77;72.61;100388.56;2618193;47;20034;-67